sensor_id;sensor_type;location;lat;lon;timestamp;P1;durP1;ratioP1;P2;durP2;ratioP2
54406;SDS011;40313;50.308;30.374;2023-03-01T05:33:40;19.90;;;13.85;;
54406;SDS011;40313;50.308;30.374;2023-03-01T05:36:09;20.63;;;12.90;;
54406;SDS011;40313;50.308;30.374;2023-03-01T05:38:36;19.17;;;13.65;;
54406;SDS011;40313;50.308;30.374;2023-03-01T05:48:23;29.92;;;15.13;;
54406;SDS011;40313;50.308;30.374;2023-03-01T05:50:49;16.10;;;14.10;;
54406;SDS011;40313;50.308;30.374;2023-03-01T05:53:18;20.27;;;14.00;;
54406;SDS011;40313;50.308;30.374;2023-03-01T05:55:46;19.73;;;14.68;;
54406;SDS011;40313;50.308;30.374;2023-03-01T05:58:15;20.55;;;13.75;;
54406;SDS011;40313;50.308;30.374;2023-03-01T06:00:44;23.55;;;13.52;;
54406;SDS011;40313;50.308;30.374;2023-03-01T06:03:13;23.15;;;12.52;;
54406;SDS011;40313;50.308;30.374;2023-03-01T06:05:41;26.38;;;11.18;;
54406;SDS011;40313;50.308;30.374;2023-03-01T06:08:08;17.55;;;14.13;;
54406;SDS011;40313;50.308;30.374;2023-03-01T06:10:37;22.55;;;13.52;;
54406;SDS011;40313;50.308;30.374;2023-03-01T06:13:03;30.52;;;17.10;;
54406;SDS011;40313;50.308;30.374;2023-03-01T06:15:30;23.38;;;14.55;;
54406;SDS011;40313;50.308;30.374;2023-03-01T06:17:56;29.00;;;16.05;;
54406;SDS011;40313;50.308;30.374;2023-03-01T06:20:24;23.45;;;15.82;;
54406;SDS011;40313;50.308;30.374;2023-03-01T06:32:42;24.50;;;14.30;;
54406;SDS011;40313;50.308;30.374;2023-03-01T06:35:09;21.05;;;12.55;;
54406;SDS011;40313;50.308;30.374;2023-03-01T06:37:37;16.38;;;13.93;;
54406;SDS011;40313;50.308;30.374;2023-03-01T06:40:04;22.20;;;15.75;;
54406;SDS011;40313;50.308;30.374;2023-03-01T06:42:33;22.63;;;14.80;;
54406;SDS011;40313;50.308;30.374;2023-03-01T06:45:01;21.10;;;14.20;;
54406;SDS011;40313;50.308;30.374;2023-03-01T07:04:35;19.80;;;15.23;;
54406;SDS011;40313;50.308;30.374;2023-03-01T07:26:36;15.55;;;12.80;;
54406;SDS011;40313;50.308;30.374;2023-03-01T07:29:03;36.05;;;16.55;;
54406;SDS011;40313;50.308;30.374;2023-03-01T07:33:58;20.55;;;15.00;;
54406;SDS011;40313;50.308;30.374;2023-03-01T07:36:26;19.40;;;14.50;;
54406;SDS011;40313;50.308;30.374;2023-03-01T07:38:52;24.50;;;15.55;;
54406;SDS011;40313;50.308;30.374;2023-03-01T07:41:20;21.33;;;14.73;;
54406;SDS011;40313;50.308;30.374;2023-03-01T07:43:47;20.63;;;15.77;;
54406;SDS011;40313;50.308;30.374;2023-03-01T07:46:13;19.40;;;13.68;;
54406;SDS011;40313;50.308;30.374;2023-03-01T07:48:40;17.17;;;13.98;;
54406;SDS011;40313;50.308;30.374;2023-03-01T07:51:07;18.75;;;15.65;;
54406;SDS011;40313;50.308;30.374;2023-03-01T07:53:35;21.75;;;14.95;;
54406;SDS011;40313;50.308;30.374;2023-03-01T07:56:02;31.13;;;15.07;;
54406;SDS011;40313;50.308;30.374;2023-03-01T07:58:29;21.85;;;13.82;;
54406;SDS011;40313;50.308;30.374;2023-03-01T08:00:56;20.83;;;14.63;;
54406;SDS011;40313;50.308;30.374;2023-03-01T08:03:22;15.82;;;13.18;;
54406;SDS011;40313;50.308;30.374;2023-03-01T08:05:49;15.60;;;14.18;;
54406;SDS011;40313;50.308;30.374;2023-03-01T08:08:15;23.38;;;15.00;;
54406;SDS011;40313;50.308;30.374;2023-03-01T08:13:09;23.10;;;14.00;;
54406;SDS011;40313;50.308;30.374;2023-03-01T08:18:02;15.70;;;13.40;;
54406;SDS011;40313;50.308;30.374;2023-03-01T08:20:29;14.40;;;13.00;;
54406;SDS011;40313;50.308;30.374;2023-03-01T08:22:57;18.15;;;14.15;;
54406;SDS011;40313;50.308;30.374;2023-03-01T08:25:23;23.10;;;13.30;;
54406;SDS011;40313;50.308;30.374;2023-03-01T08:30:18;14.50;;;13.00;;
54406;SDS011;40313;50.308;30.374;2023-03-01T08:32:45;15.65;;;12.40;;
54406;SDS011;40313;50.308;30.374;2023-03-01T08:35:12;16.50;;;12.30;;
54406;SDS011;40313;50.308;30.374;2023-03-01T08:49:55;13.75;;;12.30;;
54406;SDS011;40313;50.308;30.374;2023-03-01T08:52:21;12.30;;;11.20;;
54406;SDS011;40313;50.308;30.374;2023-03-01T08:54:49;17.50;;;12.40;;
54406;SDS011;40313;50.308;30.374;2023-03-01T09:02:12;18.30;;;13.60;;
54406;SDS011;40313;50.308;30.374;2023-03-01T09:07:06;18.15;;;15.05;;
54406;SDS011;40313;50.308;30.374;2023-03-01T09:09:33;18.33;;;13.98;;
54406;SDS011;40313;50.308;30.374;2023-03-01T09:11:59;14.07;;;12.25;;
54406;SDS011;40313;50.308;30.374;2023-03-01T09:14:26;14.38;;;12.88;;
54406;SDS011;40313;50.308;30.374;2023-03-01T09:16:52;17.73;;;12.10;;
54406;SDS011;40313;50.308;30.374;2023-03-01T09:19:20;16.02;;;12.27;;
54406;SDS011;40313;50.308;30.374;2023-03-01T09:49:09;18.13;;;14.10;;
54406;SDS011;40313;50.308;30.374;2023-03-01T09:51:39;15.45;;;12.85;;
54406;SDS011;40313;50.308;30.374;2023-03-01T09:54:06;15.50;;;11.98;;
54406;SDS011;40313;50.308;30.374;2023-03-01T09:56:36;18.60;;;13.32;;
54406;SDS011;40313;50.308;30.374;2023-03-01T09:59:08;14.05;;;12.65;;
54406;SDS011;40313;50.308;30.374;2023-03-01T10:01:46;15.98;;;12.75;;
54406;SDS011;40313;50.308;30.374;2023-03-01T10:04:26;21.05;;;12.43;;
54406;SDS011;40313;50.308;30.374;2023-03-01T10:07:02;17.92;;;13.55;;
54406;SDS011;40313;50.308;30.374;2023-03-01T10:09:42;32.28;;;14.30;;
54406;SDS011;40313;50.308;30.374;2023-03-01T10:12:10;21.05;;;14.77;;
54406;SDS011;40313;50.308;30.374;2023-03-01T10:14:43;26.88;;;19.35;;
54406;SDS011;40313;50.308;30.374;2023-03-01T10:17:17;19.58;;;14.00;;
54406;SDS011;40313;50.308;30.374;2023-03-01T10:19:51;14.48;;;12.75;;
54406;SDS011;40313;50.308;30.374;2023-03-01T10:22:19;16.35;;;12.95;;
54406;SDS011;40313;50.308;30.374;2023-03-01T10:24:47;39.72;;;22.48;;
54406;SDS011;40313;50.308;30.374;2023-03-01T10:27:17;21.00;;;16.17;;
54406;SDS011;40313;50.308;30.374;2023-03-01T10:29:48;12.73;;;11.52;;
54406;SDS011;40313;50.308;30.374;2023-03-01T10:32:24;31.55;;;15.52;;
54406;SDS011;40313;50.308;30.374;2023-03-01T10:34:52;13.85;;;12.40;;
54406;SDS011;40313;50.308;30.374;2023-03-01T10:37:20;19.52;;;12.98;;
54406;SDS011;40313;50.308;30.374;2023-03-01T10:39:56;23.98;;;14.57;;
54406;SDS011;40313;50.308;30.374;2023-03-01T10:42:28;19.05;;;13.25;;
54406;SDS011;40313;50.308;30.374;2023-03-01T10:44:56;21.70;;;17.02;;
54406;SDS011;40313;50.308;30.374;2023-03-01T10:47:24;34.58;;;16.20;;
54406;SDS011;40313;50.308;30.374;2023-03-01T10:49:54;28.85;;;18.45;;
54406;SDS011;40313;50.308;30.374;2023-03-01T10:52:25;15.93;;;14.25;;
54406;SDS011;40313;50.308;30.374;2023-03-01T10:54:55;13.70;;;11.60;;
54406;SDS011;40313;50.308;30.374;2023-03-01T10:57:34;17.73;;;13.88;;
54406;SDS011;40313;50.308;30.374;2023-03-01T11:02:51;21.60;;;14.55;;
54406;SDS011;40313;50.308;30.374;2023-03-01T11:05:29;15.13;;;13.80;;
54406;SDS011;40313;50.308;30.374;2023-03-01T11:08:00;18.73;;;12.43;;
54406;SDS011;40313;50.308;30.374;2023-03-01T11:10:28;11.85;;;10.77;;
54406;SDS011;40313;50.308;30.374;2023-03-01T11:13:05;10.75;;;9.65;;
54406;SDS011;40313;50.308;30.374;2023-03-01T11:15:33;12.45;;;9.75;;
54406;SDS011;40313;50.308;30.374;2023-03-01T11:18:00;20.20;;;10.50;;
54406;SDS011;40313;50.308;30.374;2023-03-01T11:20:29;19.65;;;11.63;;
54406;SDS011;40313;50.308;30.374;2023-03-01T11:22:59;22.55;;;14.95;;
54406;SDS011;40313;50.308;30.374;2023-03-01T11:25:31;11.70;;;10.63;;
54406;SDS011;40313;50.308;30.374;2023-03-01T11:28:01;12.45;;;11.20;;
54406;SDS011;40313;50.308;30.374;2023-03-01T11:30:32;12.85;;;9.73;;
54406;SDS011;40313;50.308;30.374;2023-03-01T11:33:08;12.93;;;8.43;;
54406;SDS011;40313;50.308;30.374;2023-03-01T11:35:44;8.13;;;7.53;;
54406;SDS011;40313;50.308;30.374;2023-03-01T11:38:18;9.98;;;8.77;;
54406;SDS011;40313;50.308;30.374;2023-03-01T11:40:49;16.92;;;9.63;;
54406;SDS011;40313;50.308;30.374;2023-03-01T11:43:26;12.63;;;10.88;;
54406;SDS011;40313;50.308;30.374;2023-03-01T11:49:12;9.10;;;8.20;;
54406;SDS011;40313;50.308;30.374;2023-03-01T11:51:48;10.45;;;8.70;;
54406;SDS011;40313;50.308;30.374;2023-03-01T11:54:29;11.20;;;8.48;;
54406;SDS011;40313;50.308;30.374;2023-03-01T11:57:04;14.77;;;9.75;;
54406;SDS011;40313;50.308;30.374;2023-03-01T11:59:51;12.00;;;10.18;;
54406;SDS011;40313;50.308;30.374;2023-03-01T12:05:20;10.88;;;8.18;;
54406;SDS011;40313;50.308;30.374;2023-03-01T12:07:58;11.60;;;10.43;;
54406;SDS011;40313;50.308;30.374;2023-03-01T12:10:35;10.02;;;8.13;;
54406;SDS011;40313;50.308;30.374;2023-03-01T12:13:13;11.15;;;9.20;;
54406;SDS011;40313;50.308;30.374;2023-03-01T12:19:12;13.23;;;10.27;;
54406;SDS011;40313;50.308;30.374;2023-03-01T12:22:01;20.02;;;10.82;;
54406;SDS011;40313;50.308;30.374;2023-03-01T12:24:41;11.35;;;10.30;;
54406;SDS011;40313;50.308;30.374;2023-03-01T12:27:26;12.82;;;11.50;;
54406;SDS011;40313;50.308;30.374;2023-03-01T12:30:09;12.27;;;11.13;;
54406;SDS011;40313;50.308;30.374;2023-03-01T12:35:35;17.00;;;9.52;;
54406;SDS011;40313;50.308;30.374;2023-03-01T12:38:16;10.50;;;9.50;;
54406;SDS011;40313;50.308;30.374;2023-03-01T12:41:01;12.32;;;10.25;;
54406;SDS011;40313;50.308;30.374;2023-03-01T12:43:50;13.18;;;10.50;;
54406;SDS011;40313;50.308;30.374;2023-03-01T12:46:30;10.93;;;8.63;;
54406;SDS011;40313;50.308;30.374;2023-03-01T12:49:10;11.05;;;8.95;;
54406;SDS011;40313;50.308;30.374;2023-03-01T12:51:42;13.18;;;10.95;;
54406;SDS011;40313;50.308;30.374;2023-03-01T12:54:15;21.25;;;11.52;;
54406;SDS011;40313;50.308;30.374;2023-03-01T12:56:47;10.95;;;9.88;;
54406;SDS011;40313;50.308;30.374;2023-03-01T12:59:19;10.95;;;9.23;;
54406;SDS011;40313;50.308;30.374;2023-03-01T13:01:52;11.35;;;10.25;;
54406;SDS011;40313;50.308;30.374;2023-03-01T13:04:30;10.85;;;9.68;;
54406;SDS011;40313;50.308;30.374;2023-03-01T13:07:13;11.02;;;9.95;;
54406;SDS011;40313;50.308;30.374;2023-03-01T13:09:49;16.00;;;10.57;;
54406;SDS011;40313;50.308;30.374;2023-03-01T13:12:42;17.40;;;14.38;;
54406;SDS011;40313;50.308;30.374;2023-03-01T13:18:00;38.10;;;11.63;;
54406;SDS011;40313;50.308;30.374;2023-03-01T13:20:30;13.68;;;10.68;;
54406;SDS011;40313;50.308;30.374;2023-03-01T13:23:03;15.60;;;11.55;;
54406;SDS011;40313;50.308;30.374;2023-03-01T13:25:33;18.52;;;12.05;;
54406;SDS011;40313;50.308;30.374;2023-03-01T13:31:00;11.55;;;10.57;;
54406;SDS011;40313;50.308;30.374;2023-03-01T13:33:42;21.38;;;11.80;;
54406;SDS011;40313;50.308;30.374;2023-03-01T13:36:11;15.85;;;11.27;;
54406;SDS011;40313;50.308;30.374;2023-03-01T13:38:59;15.88;;;12.55;;
54406;SDS011;40313;50.308;30.374;2023-03-01T13:44:19;15.75;;;12.73;;
54406;SDS011;40313;50.308;30.374;2023-03-01T13:46:53;17.42;;;12.40;;
54406;SDS011;40313;50.308;30.374;2023-03-01T13:49:22;20.25;;;12.10;;
54406;SDS011;40313;50.308;30.374;2023-03-01T13:51:52;12.98;;;11.07;;
54406;SDS011;40313;50.308;30.374;2023-03-01T13:54:22;15.95;;;9.55;;
54406;SDS011;40313;50.308;30.374;2023-03-01T13:56:54;22.45;;;11.70;;
54406;SDS011;40313;50.308;30.374;2023-03-01T13:59:21;15.68;;;12.00;;
54406;SDS011;40313;50.308;30.374;2023-03-01T14:01:53;16.83;;;12.32;;
54406;SDS011;40313;50.308;30.374;2023-03-01T14:04:21;19.67;;;12.15;;
54406;SDS011;40313;50.308;30.374;2023-03-01T14:06:51;18.45;;;11.52;;
54406;SDS011;40313;50.308;30.374;2023-03-01T14:09:18;20.35;;;11.60;;
54406;SDS011;40313;50.308;30.374;2023-03-01T14:12:01;20.35;;;12.43;;
54406;SDS011;40313;50.308;30.374;2023-03-01T14:14:42;21.10;;;11.85;;
54406;SDS011;40313;50.308;30.374;2023-03-01T14:17:24;12.75;;;11.07;;
54406;SDS011;40313;50.308;30.374;2023-03-01T14:20:11;8.93;;;8.02;;
54406;SDS011;40313;50.308;30.374;2023-03-01T14:22:41;15.57;;;11.35;;
54406;SDS011;40313;50.308;30.374;2023-03-01T14:25:16;14.63;;;10.98;;
54406;SDS011;40313;50.308;30.374;2023-03-01T14:27:50;16.85;;;10.75;;
54406;SDS011;40313;50.308;30.374;2023-03-01T14:30:21;20.80;;;11.93;;
54406;SDS011;40313;50.308;30.374;2023-03-01T14:32:54;18.13;;;11.80;;
54406;SDS011;40313;50.308;30.374;2023-03-01T14:35:23;19.42;;;12.35;;
54406;SDS011;40313;50.308;30.374;2023-03-01T14:37:52;15.68;;;11.23;;
54406;SDS011;40313;50.308;30.374;2023-03-01T14:40:22;14.73;;;11.30;;
54406;SDS011;40313;50.308;30.374;2023-03-01T14:42:51;16.70;;;11.65;;
54406;SDS011;40313;50.308;30.374;2023-03-01T14:45:19;13.82;;;11.48;;
54406;SDS011;40313;50.308;30.374;2023-03-01T14:47:46;14.75;;;11.75;;
54406;SDS011;40313;50.308;30.374;2023-03-01T14:50:19;14.02;;;8.90;;
54406;SDS011;40313;50.308;30.374;2023-03-01T14:52:50;12.52;;;10.27;;
54406;SDS011;40313;50.308;30.374;2023-03-01T14:55:20;17.13;;;11.18;;
54406;SDS011;40313;50.308;30.374;2023-03-01T14:57:50;18.52;;;10.70;;
54406;SDS011;40313;50.308;30.374;2023-03-01T15:00:18;18.85;;;13.18;;
54406;SDS011;40313;50.308;30.374;2023-03-01T15:02:47;17.05;;;12.48;;
54406;SDS011;40313;50.308;30.374;2023-03-01T15:05:17;27.10;;;15.15;;
54406;SDS011;40313;50.308;30.374;2023-03-01T15:07:49;28.83;;;15.43;;
54406;SDS011;40313;50.308;30.374;2023-03-01T15:10:19;47.40;;;19.20;;
54406;SDS011;40313;50.308;30.374;2023-03-01T15:12:47;40.88;;;21.08;;
54406;SDS011;40313;50.308;30.374;2023-03-01T15:15:22;46.88;;;25.17;;
54406;SDS011;40313;50.308;30.374;2023-03-01T15:18:00;34.22;;;19.42;;
54406;SDS011;40313;50.308;30.374;2023-03-01T15:20:30;38.20;;;21.60;;
54406;SDS011;40313;50.308;30.374;2023-03-01T15:23:01;60.38;;;26.00;;
54406;SDS011;40313;50.308;30.374;2023-03-01T15:25:29;70.60;;;26.42;;
54406;SDS011;40313;50.308;30.374;2023-03-01T15:27:58;43.90;;;21.15;;
54406;SDS011;40313;50.308;30.374;2023-03-01T15:30:27;35.28;;;18.27;;
54406;SDS011;40313;50.308;30.374;2023-03-01T15:33:18;26.45;;;16.90;;
54406;SDS011;40313;50.308;30.374;2023-03-01T15:35:55;31.70;;;17.15;;
54406;SDS011;40313;50.308;30.374;2023-03-01T15:38:26;29.67;;;17.10;;
54406;SDS011;40313;50.308;30.374;2023-03-01T15:40:54;33.28;;;17.23;;
54406;SDS011;40313;50.308;30.374;2023-03-01T15:43:37;23.35;;;16.25;;
54406;SDS011;40313;50.308;30.374;2023-03-01T15:46:11;26.90;;;15.02;;
54406;SDS011;40313;50.308;30.374;2023-03-01T15:48:47;28.40;;;14.05;;
54406;SDS011;40313;50.308;30.374;2023-03-01T15:51:17;29.10;;;16.13;;
54406;SDS011;40313;50.308;30.374;2023-03-01T15:53:43;28.60;;;15.45;;
54406;SDS011;40313;50.308;30.374;2023-03-01T15:56:16;24.10;;;14.80;;
54406;SDS011;40313;50.308;30.374;2023-03-01T15:58:42;23.77;;;15.07;;
54406;SDS011;40313;50.308;30.374;2023-03-01T16:01:10;21.50;;;14.10;;
54406;SDS011;40313;50.308;30.374;2023-03-01T16:03:39;23.20;;;14.48;;
54406;SDS011;40313;50.308;30.374;2023-03-01T16:06:05;23.00;;;14.88;;
54406;SDS011;40313;50.308;30.374;2023-03-01T16:08:33;22.65;;;14.75;;
54406;SDS011;40313;50.308;30.374;2023-03-01T16:11:00;22.55;;;14.35;;
54406;SDS011;40313;50.308;30.374;2023-03-01T16:13:29;32.38;;;19.33;;
54406;SDS011;40313;50.308;30.374;2023-03-01T16:15:56;63.70;;;25.77;;
54406;SDS011;40313;50.308;30.374;2023-03-01T16:18:23;59.15;;;26.98;;
54406;SDS011;40313;50.308;30.374;2023-03-01T16:20:50;57.65;;;26.30;;
54406;SDS011;40313;50.308;30.374;2023-03-01T16:23:17;64.38;;;29.15;;
54406;SDS011;40313;50.308;30.374;2023-03-01T16:25:45;48.58;;;24.13;;
54406;SDS011;40313;50.308;30.374;2023-03-01T16:28:12;29.80;;;19.17;;
54406;SDS011;40313;50.308;30.374;2023-03-01T16:30:39;33.53;;;18.80;;
54406;SDS011;40313;50.308;30.374;2023-03-01T16:33:05;32.72;;;19.42;;
54406;SDS011;40313;50.308;30.374;2023-03-01T16:35:33;22.58;;;15.48;;
54406;SDS011;40313;50.308;30.374;2023-03-01T16:37:59;35.67;;;16.57;;
54406;SDS011;40313;50.308;30.374;2023-03-01T16:45:24;26.60;;;15.20;;
54406;SDS011;40313;50.308;30.374;2023-03-01T16:47:51;23.90;;;14.00;;
54406;SDS011;40313;50.308;30.374;2023-03-01T16:52:44;24.90;;;14.65;;
54406;SDS011;40313;50.308;30.374;2023-03-01T16:55:11;28.20;;;16.25;;
54406;SDS011;40313;50.308;30.374;2023-03-01T16:57:38;24.75;;;16.77;;
54406;SDS011;40313;50.308;30.374;2023-03-01T17:00:13;42.83;;;17.05;;
54406;SDS011;40313;50.308;30.374;2023-03-01T17:05:07;33.10;;;15.43;;
54406;SDS011;40313;50.308;30.374;2023-03-01T17:07:36;22.80;;;14.32;;
54406;SDS011;40313;50.308;30.374;2023-03-01T17:10:03;23.02;;;15.48;;
54406;SDS011;40313;50.308;30.374;2023-03-01T17:12:31;29.75;;;15.48;;
54406;SDS011;40313;50.308;30.374;2023-03-01T17:14:58;29.83;;;17.70;;
54406;SDS011;40313;50.308;30.374;2023-03-01T17:17:27;28.05;;;16.27;;
54406;SDS011;40313;50.308;30.374;2023-03-01T17:19:53;34.35;;;16.05;;
54406;SDS011;40313;50.308;30.374;2023-03-01T17:22:20;32.45;;;16.73;;
54406;SDS011;40313;50.308;30.374;2023-03-01T17:24:46;30.70;;;20.10;;
54406;SDS011;40313;50.308;30.374;2023-03-01T17:27:13;28.38;;;15.18;;
54406;SDS011;40313;50.308;30.374;2023-03-01T17:29:40;29.52;;;15.82;;
54406;SDS011;40313;50.308;30.374;2023-03-01T18:04:00;28.33;;;15.13;;
54406;SDS011;40313;50.308;30.374;2023-03-01T18:06:27;25.50;;;15.00;;
54406;SDS011;40313;50.308;30.374;2023-03-01T18:08:55;23.58;;;15.40;;
54406;SDS011;40313;50.308;30.374;2023-03-01T18:11:22;20.17;;;12.55;;
54406;SDS011;40313;50.308;30.374;2023-03-01T18:23:39;16.33;;;9.05;;
54406;SDS011;40313;50.308;30.374;2023-03-01T18:26:08;18.85;;;9.85;;
54406;SDS011;40313;50.308;30.374;2023-03-01T18:28:37;15.25;;;9.63;;
54406;SDS011;40313;50.308;30.374;2023-03-01T18:31:05;12.73;;;9.52;;
54406;SDS011;40313;50.308;30.374;2023-03-01T18:33:34;19.92;;;13.07;;
54406;SDS011;40313;50.308;30.374;2023-03-01T18:36:01;29.52;;;13.98;;
54406;SDS011;40313;50.308;30.374;2023-03-01T18:38:28;13.05;;;9.32;;
54406;SDS011;40313;50.308;30.374;2023-03-01T18:40:55;10.63;;;6.80;;
54406;SDS011;40313;50.308;30.374;2023-03-01T18:43:23;18.42;;;10.60;;
54406;SDS011;40313;50.308;30.374;2023-03-01T18:45:54;15.95;;;7.72;;
54406;SDS011;40313;50.308;30.374;2023-03-01T18:53:14;17.05;;;8.55;;
54406;SDS011;40313;50.308;30.374;2023-03-01T18:55:41;13.35;;;6.57;;
54406;SDS011;40313;50.308;30.374;2023-03-01T18:58:08;20.77;;;6.68;;
54406;SDS011;40313;50.308;30.374;2023-03-01T19:00:36;9.05;;;6.18;;
54406;SDS011;40313;50.308;30.374;2023-03-01T19:03:03;13.68;;;5.65;;
54406;SDS011;40313;50.308;30.374;2023-03-01T19:05:30;8.17;;;5.90;;
54406;SDS011;40313;50.308;30.374;2023-03-01T19:07:57;11.70;;;6.70;;
54406;SDS011;40313;50.308;30.374;2023-03-01T19:10:23;14.40;;;7.70;;
54406;SDS011;40313;50.308;30.374;2023-03-01T19:12:50;10.95;;;6.05;;
54406;SDS011;40313;50.308;30.374;2023-03-01T19:17:45;18.00;;;7.45;;
54406;SDS011;40313;50.308;30.374;2023-03-01T19:20:11;18.23;;;6.97;;
54406;SDS011;40313;50.308;30.374;2023-03-01T19:22:38;12.07;;;6.10;;
54406;SDS011;40313;50.308;30.374;2023-03-01T19:25:05;14.15;;;6.90;;
54406;SDS011;40313;50.308;30.374;2023-03-01T19:27:32;18.95;;;8.55;;
54406;SDS011;40313;50.308;30.374;2023-03-01T19:29:59;21.95;;;8.75;;
54406;SDS011;40313;50.308;30.374;2023-03-01T19:32:26;29.90;;;10.10;;
54406;SDS011;40313;50.308;30.374;2023-03-01T19:34:54;24.20;;;11.90;;
54406;SDS011;40313;50.308;30.374;2023-03-01T19:37:20;21.90;;;11.20;;
54406;SDS011;40313;50.308;30.374;2023-03-01T19:39:47;18.70;;;11.20;;
54406;SDS011;40313;50.308;30.374;2023-03-01T19:42:14;27.57;;;11.53;;
54406;SDS011;40313;50.308;30.374;2023-03-01T19:44:40;15.13;;;9.87;;
54406;SDS011;40313;50.308;30.374;2023-03-01T19:47:07;19.25;;;10.15;;
54406;SDS011;40313;50.308;30.374;2023-03-01T19:49:33;13.50;;;7.20;;
54406;SDS011;40313;50.308;30.374;2023-03-01T19:52:03;14.13;;;6.97;;
54406;SDS011;40313;50.308;30.374;2023-03-01T19:54:30;13.03;;;5.33;;
54406;SDS011;40313;50.308;30.374;2023-03-01T19:56:56;6.70;;;5.70;;
54406;SDS011;40313;50.308;30.374;2023-03-01T19:59:24;13.90;;;6.10;;
54406;SDS011;40313;50.308;30.374;2023-03-01T20:01:52;15.03;;;7.10;;
54406;SDS011;40313;50.308;30.374;2023-03-01T20:06:46;12.45;;;7.05;;
54406;SDS011;40313;50.308;30.374;2023-03-01T20:09:15;16.07;;;6.17;;
54406;SDS011;40313;50.308;30.374;2023-03-01T20:11:42;10.50;;;6.93;;
54406;SDS011;40313;50.308;30.374;2023-03-01T20:14:08;11.95;;;8.35;;
54406;SDS011;40313;50.308;30.374;2023-03-01T20:16:36;23.30;;;9.30;;
54406;SDS011;40313;50.308;30.374;2023-03-01T20:19:03;22.65;;;9.65;;
54406;SDS011;40313;50.308;30.374;2023-03-01T20:21:30;13.20;;;9.65;;
54406;SDS011;40313;50.308;30.374;2023-03-01T20:23:57;30.35;;;11.60;;
54406;SDS011;40313;50.308;30.374;2023-03-01T20:26:28;30.30;;;16.35;;
54406;SDS011;40313;50.308;30.374;2023-03-01T20:28:56;43.17;;;21.50;;
54406;SDS011;40313;50.308;30.374;2023-03-01T20:31:23;43.33;;;21.20;;
54406;SDS011;40313;50.308;30.374;2023-03-01T20:33:53;31.45;;;18.95;;
54406;SDS011;40313;50.308;30.374;2023-03-01T20:36:20;30.90;;;17.75;;
54406;SDS011;40313;50.308;30.374;2023-03-01T20:38:47;26.73;;;16.53;;
54406;SDS011;40313;50.308;30.374;2023-03-01T20:41:14;24.87;;;15.63;;
54406;SDS011;40313;50.308;30.374;2023-03-01T20:43:41;24.70;;;13.00;;
54406;SDS011;40313;50.308;30.374;2023-03-01T20:46:09;37.23;;;15.13;;
54406;SDS011;40313;50.308;30.374;2023-03-01T20:48:38;33.70;;;13.90;;
54406;SDS011;40313;50.308;30.374;2023-03-01T20:51:07;21.73;;;12.63;;
54406;SDS011;40313;50.308;30.374;2023-03-01T20:53:34;19.30;;;12.70;;
54406;SDS011;40313;50.308;30.374;2023-03-01T20:56:01;30.85;;;12.30;;
54406;SDS011;40313;50.308;30.374;2023-03-01T20:58:28;18.50;;;12.20;;
54406;SDS011;40313;50.308;30.374;2023-03-01T21:00:58;24.50;;;12.00;;
54406;SDS011;40313;50.308;30.374;2023-03-01T21:03:25;15.70;;;9.93;;
54406;SDS011;40313;50.308;30.374;2023-03-01T21:05:53;22.60;;;10.03;;
54406;SDS011;40313;50.308;30.374;2023-03-01T21:08:20;16.90;;;9.47;;
54406;SDS011;40313;50.308;30.374;2023-03-01T21:10:48;16.85;;;8.75;;
54406;SDS011;40313;50.308;30.374;2023-03-01T21:13:15;14.00;;;9.00;;
54406;SDS011;40313;50.308;30.374;2023-03-01T21:15:41;19.05;;;9.85;;
54406;SDS011;40313;50.308;30.374;2023-03-01T21:18:09;21.35;;;8.45;;
54406;SDS011;40313;50.308;30.374;2023-03-01T21:20:36;14.05;;;8.20;;
54406;SDS011;40313;50.308;30.374;2023-03-01T21:23:06;12.83;;;7.57;;
54406;SDS011;40313;50.308;30.374;2023-03-01T21:25:33;8.60;;;6.80;;
54406;SDS011;40313;50.308;30.374;2023-03-01T21:28:02;9.80;;;8.00;;
54406;SDS011;40313;50.308;30.374;2023-03-01T21:30:29;10.63;;;6.00;;
54406;SDS011;40313;50.308;30.374;2023-03-01T21:32:55;14.67;;;6.30;;
54406;SDS011;40313;50.308;30.374;2023-03-01T21:35:23;16.05;;;7.25;;
54406;SDS011;40313;50.308;30.374;2023-03-01T21:37:50;7.43;;;6.33;;
54406;SDS011;40313;50.308;30.374;2023-03-01T21:40:16;13.35;;;6.20;;
54406;SDS011;40313;50.308;30.374;2023-03-01T21:42:43;11.00;;;6.30;;
54406;SDS011;40313;50.308;30.374;2023-03-01T21:45:12;9.30;;;6.75;;
54406;SDS011;40313;50.308;30.374;2023-03-01T21:47:39;15.75;;;7.50;;
54406;SDS011;40313;50.308;30.374;2023-03-01T21:50:06;12.77;;;8.30;;
54406;SDS011;40313;50.308;30.374;2023-03-01T21:52:34;24.33;;;11.43;;
54406;SDS011;40313;50.308;30.374;2023-03-01T21:55:01;23.17;;;11.00;;
54406;SDS011;40313;50.308;30.374;2023-03-01T21:57:28;30.55;;;13.60;;
54406;SDS011;40313;50.308;30.374;2023-03-01T21:59:54;36.65;;;15.45;;
54406;SDS011;40313;50.308;30.374;2023-03-01T22:02:21;33.10;;;14.20;;
54406;SDS011;40313;50.308;30.374;2023-03-01T22:04:50;24.30;;;12.30;;
54406;SDS011;40313;50.308;30.374;2023-03-01T22:07:21;27.50;;;12.17;;
54406;SDS011;40313;50.308;30.374;2023-03-01T22:09:49;25.60;;;12.10;;
54406;SDS011;40313;50.308;30.374;2023-03-01T22:12:15;26.05;;;12.60;;
54406;SDS011;40313;50.308;30.374;2023-03-01T22:14:42;22.00;;;11.10;;
54406;SDS011;40313;50.308;30.374;2023-03-01T22:17:08;25.60;;;12.20;;
54406;SDS011;40313;50.308;30.374;2023-03-01T22:19:35;22.70;;;11.00;;
54406;SDS011;40313;50.308;30.374;2023-03-01T22:22:02;21.10;;;10.60;;
54406;SDS011;40313;50.308;30.374;2023-03-01T22:24:28;35.70;;;11.95;;
54406;SDS011;40313;50.308;30.374;2023-03-01T22:26:57;18.03;;;9.53;;
54406;SDS011;40313;50.308;30.374;2023-03-01T22:29:24;16.30;;;9.90;;
54406;SDS011;40313;50.308;30.374;2023-03-01T22:31:53;26.83;;;11.73;;
54406;SDS011;40313;50.308;30.374;2023-03-01T22:34:21;25.00;;;10.85;;
54406;SDS011;40313;50.308;30.374;2023-03-01T22:36:47;26.00;;;10.20;;
54406;SDS011;40313;50.308;30.374;2023-03-01T22:39:15;18.93;;;8.97;;
54406;SDS011;40313;50.308;30.374;2023-03-01T22:41:44;21.27;;;10.65;;
54406;SDS011;40313;50.308;30.374;2023-03-01T22:44:14;11.07;;;8.55;;
54406;SDS011;40313;50.308;30.374;2023-03-01T22:46:43;17.63;;;8.38;;
54406;SDS011;40313;50.308;30.374;2023-03-01T22:49:10;17.48;;;8.68;;
54406;SDS011;40313;50.308;30.374;2023-03-01T22:51:38;26.63;;;11.00;;
54406;SDS011;40313;50.308;30.374;2023-03-01T22:54:06;19.50;;;10.70;;
